Extreme weather reports worldwide

Thunderstorm

Station
 
Location
 
Name
 
Wind
Knots
Gust
Knots
Vis
SM
Temp/Dew
C
Baro
inHg
METAR
 
REN UWOO Orenburg, RU Orenburg Central Airport 16 27 21/17 29.82 UWOO 151500Z 34008G14MPS 9999 -TSRA BKN040CB 21/17 Q1010 R08/CLRD60 NOSIG RMK QFE747/0996
MIA KMIA Miami, US Miami International Airport 16 25 28/23 30.12 KMIA 151453Z COR 12016G25KT 10SM -TSRA SCT024CB BKN035 OVC070 28/24 A3012 RMK AO2 RAB44 TSE49B53 SLP200 OCNL LTGIC SW TS SW MOV W CB NE-SE-S MOV NW P0000 60000 T02830239 53013
KGF UAKK Karaganda, KZ Sary-Arka Airport 10 19 25/14 29.68 UAKK 151430Z 17005G10MPS 140V200 9999 VCTS SCT050CB 25/14 Q1005 NOSIG RMK QFE707/0943
KK70 10 16 9 27/26 30.09 KK70 151455Z AUTO 06010G16KT 030V100 9SM VCTS SCT015 BKN021 BKN032 27/26 A3009 RMK AO2 LTG DSNT NW-E
BCT KBCT Boca Raton, US Boca Raton Airport 10 15 33/26 30.11 KBCT 151453Z 09010G15KT 10SM VCTS SCT021 33/26 A3011 RMK LTG DSNT SE AND S.

Station
 
Location
 
Name
 
Wind
Knots
Gust
Knots
Vis
SM
Temp/Dew
C
Baro
inHg
METAR
 
KFPY 9 14 31/24 30.12 KFPY 151455Z AUTO 19009G14KT 10SM VCTS BKN027 BKN046 BKN060 32/24 A3012 RMK AO2 LTG DSNT S THRU W T03160240
SUJ LRSM Satu Mare, RO Satu Mare Airport 16 32/17 29.91 LRSM 151500Z 15016KT 9999 TS FEW045CB 32/17 Q1013
ORE LFOJ Orléans/Bricy, FR Orléans-Bricy (BA 123) Air Base 16 26/18 29.73 LFOJ 151500Z AUTO 24016KT 9999 TS FEW032/// SCT042/// BKN060/// ///CB 26/18 Q1007 TEMPO 26020G30KT 4000 -SHRA
BAY LRBM Baia Mare, RO Maramureș International Airport 12 26/18 29.94 LRBM 151500Z AUTO 11012KT 9999 -TSRA FEW049/// BKN080/// BKN095/// 26/18 Q1014
PGF LFMP Perpignan/Rivesaltes, FR Perpignan-Rivesaltes (Llabanère) Airport 11 28/22 29.88 LFMP 151500Z AUTO 05011KT 9999 VCTS FEW017/// ///CB 28/22 Q1012 TEMPO VRB15G25KT 3000 TSRA
GOU FKKR Garoua, CM Garoua International Airport 11 0.5 25/25 29.88 FKKR 151400Z 16011KT 0800 +TSRA BKN006 FEW012CB 25/25 Q1012 TEMPO 080/25KT 800 +TSRA
IXY VAKE Kandla, IN Kandla Airport 10 1.55 33/27 29.47 VAKE 151415Z 24010KT 2500 TS BKN015 FEW030CB OVC070 33/27 Q0998 TEMPO VIS 1000 TSRA
MZI GAMB ML Mopti Airport 10 23/23 29.91 GAMB 151400Z 22010KT 9999 TSRA FEW030 FEW040CB 23/23 Q1013
ABT OEBA SA Al Baha Airport 10 31/14 29.94 OEBA 151500Z 22010KT 9999 TS FEW025CB SCT030 31/14 Q1014 NOSIG
KAN DNKN Kano, NG Mallam Aminu International Airport 10 1.86 24/23 30.00 DNKN 151400Z 29010KT 3000 TSRA BKN009 FEW021CB 24/23 Q1016 TEMPO TSRA 1500
JOS DNJO Jos, NG Yakubu Gowon Airport 9 22/20 30.12 DNJO 151400Z 27009KT 9999 TS BKN008 FEW017CB 22/20 Q1020
BJL GBYD Banjul, GM Banjul International Airport 7 29/25 29.91 GBYD 151500Z 32007KT 9999 TS BKN012 FEW018CB SCT120 29/25 Q1013 CB(S-SE)
AAF KAAF Apalachicola, US Apalachicola Regional Airport 6 31/25 30.11 KAAF 151453Z AUTO 23006KT 10SM TS FEW027 SCT042 BKN110 32/26 A3011 RMK AO2 LTG DSNT W-N TSB46 SLP194 T03170256 50002
PQC VVPQ Phu Quoc Island, VN Phu Quoc International Airport 6 1.86 24/23 29.73 VVPQ 151430Z 30006KT 3000 TSRA SCT013 FEW015CB OVC040 24/23 Q1007 TEMPO TL1500 29015G30KT 3000 TSRA
YQA CYQA Muskoka, CA Muskoka Airport 6 9 26/23 29.81 CYQA 151456Z AUTO 19006KT 9SM TS SCT014 SCT026 BKN033 BKN049 26/23 A2981 RMK LTNG DIST ALQDS SLP091 DENSITY ALT 2600FT
LFLH Chalon/Champforgueil, FR Chalon-Champforgeuil Airport 6 25/21 29.82 LFLH 151500Z AUTO 28006KT 9999 TSRA ///CB 25/21 Q1010
YHM CYHM Hamilton, CA John C. Munro Hamilton International Airport 5 5 23/23 29.86 CYHM 151453Z 16005KT 5SM -TSRA BR SCT005 OVC012 23/23 A2986 RMK CF3SC5 CB EMBD SLP111 DENSITY ALT 2000FT
KOK EFKK Kokkola / Kruunupyy, FI Kokkola-Pietarsaari Airport 5 20/15 29.91 EFKK 151450Z AUTO 32005KT 300V360 9999 VCTS FEW032 //////CB 20/15 Q1013
EBU LFMH Saint-Étienne/Bouthéon, FR Saint-Étienne-Bouthéon Airport 5 22/18 29.91 LFMH 151500Z AUTO 31005KT 280V360 9999 -RA VCTS FEW045/// SCT076/// OVC100/// ///CB 22/18 Q1013
GAU VEGT Guwahati, IN Lokpriya Gopinath Bordoloi International Airport 4 1.55 31/30 29.62 VEGT 151500Z 16004KT 2500 -TSRA FEW008 SCT016 FEW025CB OVC080 31/30 Q1003 NOSIG
HET ZBHH Hohhot, CN Baita International Airport 4 4.97 21/20 29.76 ZBHH 151400Z 35002MPS 300V020 8000 -TSRA SCT030 FEW030CB 21/20 Q1008 BECMG TL1530 NSW
CSK GOGS Cap Skirring, SN Cap Skirring Airport 4 27/26 29.97 GOGS 151400Z 04004KT 9999 TS FEW013 SCT030CB 27/26 Q1015
YKF CYKF Kitchener, CA Waterloo Airport 4 6 21/21 29.88 CYKF 151449Z AUTO 28004KT 6SM TSRA BR SCT060 BKN099 OVC120 21/21 A2988 RMK LTNG DIST ALQDS PRESRR PCPN 0.8MM PAST HR SLP116 DENSITY ALT 2100FT
PAM KPAM Panama City, US Tyndall Air Force Base 4 29/23 30.10 KPAM 151455Z 32004KT 10SM VCTS SCT020 BKN090 29/24 A3010 RMK AO2A TSE35 SLP196 T02930235 50007 $
ZAR DNZA Zaria, NG Zaria Airport 4 24/23 30.00 DNZA 151400Z 23004KT 9999 TS BKN012 FEW020CB 24/23 Q1016
IDR VAID Indore, IN Devi Ahilyabai Holkar Airport 3 3.11 27/24 29.62 VAID 151500Z 03003KT 5000 TS FEW010 SCT020 FEW030CB BKN100 27/24 Q1003 TEMPO 4000 -TSRA
KOS VDSV Sihanukville, KH Sihanoukville International Airport 3 4.97 25/24 29.73 VDSV 151430Z 03003KT 8000 -TSRA SCT015 FEW017CB BKN040 25/24 Q1007 RMK CB:S
URO LFOP Rouen/Vallée de Seine, FR Rouen Airport 1 2.17 18/17 29.76 LFOP 151500Z AUTO VRB01KT 3500 -RA BR VCTS BKN033/// BKN043/// BKN050/// ///CB 18/17 Q1008 TEMPO 20015G25KT 2000 TSRA
KTDR 0 29/24 30.06 KTDR 151455Z AUTO 00000KT 10SM TS SCT220 BKN240 30/25 A3006 RMK AO2 TSE37TSB53 SLP180 T02950248 51010 $
TMB KTMB Miami, US Miami Executive Airport 0 7 27/26 30.11 KTMB 151453Z 00000KT 7SM TSRA FEW033 BKN043 OVC070 27/26 A3011 RMK AO2 LTG DSNT NE-SE RAB16 TSB49 SLP195 P0022 60022 T02720261 53013 $
KCYD 0 5 30/24 30.14 KCYD 151455Z AUTO 00000KT 5SM VCTSHZ CLR 30/24 A3014 RMK A02 LTG DSNT E AND W T03010241
MVR FKKL Maroua, CM Salak Airport / 29.91 FKKL 151400Z /////KT 9999 TS SCT010 SCT015CB ///// Q1013